sensor_id;sensor_type;location;lat;lon;timestamp;pressure;altitude;pressure_sealevel;temperature;humidity
8298;BME280;4187;42.778;23.242;2023-11-19T00:01:01;95270.06;;;3.95;100.00
8298;BME280;4187;42.778;23.242;2023-11-19T00:03:32;95281.13;;;3.98;100.00
8298;BME280;4187;42.778;23.242;2023-11-19T00:06:00;95279.56;;;3.96;100.00
8298;BME280;4187;42.778;23.242;2023-11-19T00:08:28;95273.84;;;3.91;100.00
8298;BME280;4187;42.778;23.242;2023-11-19T00:10:54;95285.13;;;3.91;100.00
8298;BME280;4187;42.778;23.242;2023-11-19T00:13:21;95283.34;;;3.92;100.00
8298;BME280;4187;42.778;23.242;2023-11-19T00:15:48;95271.53;;;3.86;100.00
8298;BME280;4187;42.778;23.242;2023-11-19T00:18:15;95268.72;;;3.89;100.00
8298;BME280;4187;42.778;23.242;2023-11-19T00:20:43;95274.97;;;3.87;100.00
8298;BME280;4187;42.778;23.242;2023-11-19T00:23:10;95272.59;;;3.84;100.00
8298;BME280;4187;42.778;23.242;2023-11-19T00:25:37;95277.19;;;3.80;100.00
8298;BME280;4187;42.778;23.242;2023-11-19T00:28:04;95274.25;;;3.85;100.00
8298;BME280;4187;42.778;23.242;2023-11-19T00:30:31;95276.66;;;3.88;100.00
8298;BME280;4187;42.778;23.242;2023-11-19T00:32:58;95271.75;;;3.83;100.00
8298;BME280;4187;42.778;23.242;2023-11-19T00:35:24;95269.75;;;3.87;100.00
8298;BME280;4187;42.778;23.242;2023-11-19T00:37:53;95278.34;;;3.89;100.00
8298;BME280;4187;42.778;23.242;2023-11-19T00:40:20;95283.63;;;3.87;100.00
8298;BME280;4187;42.778;23.242;2023-11-19T00:42:48;95280.94;;;3.89;100.00
8298;BME280;4187;42.778;23.242;2023-11-19T00:45:15;95280.31;;;3.85;100.00
8298;BME280;4187;42.778;23.242;2023-11-19T00:47:42;95289.28;;;3.94;100.00
8298;BME280;4187;42.778;23.242;2023-11-19T00:50:10;95289.94;;;3.97;100.00
8298;BME280;4187;42.778;23.242;2023-11-19T00:52:38;95272.81;;;3.81;100.00
8298;BME280;4187;42.778;23.242;2023-11-19T00:55:07;95304.22;;;3.92;100.00
8298;BME280;4187;42.778;23.242;2023-11-19T00:57:34;95287.41;;;3.83;100.00
8298;BME280;4187;42.778;23.242;2023-11-19T01:00:01;95301.72;;;3.90;100.00
8298;BME280;4187;42.778;23.242;2023-11-19T01:02:32;95307.44;;;3.95;100.00
8298;BME280;4187;42.778;23.242;2023-11-19T01:05:00;95306.09;;;3.90;100.00
8298;BME280;4187;42.778;23.242;2023-11-19T01:07:26;95300.13;;;3.88;100.00
8298;BME280;4187;42.778;23.242;2023-11-19T01:09:53;95296.28;;;3.93;100.00
8298;BME280;4187;42.778;23.242;2023-11-19T01:12:22;95300.34;;;3.85;100.00
8298;BME280;4187;42.778;23.242;2023-11-19T01:14:48;95303.47;;;3.90;100.00
8298;BME280;4187;42.778;23.242;2023-11-19T01:17:15;95290.63;;;3.74;100.00
8298;BME280;4187;42.778;23.242;2023-11-19T01:19:42;95308.59;;;3.79;100.00
8298;BME280;4187;42.778;23.242;2023-11-19T01:22:09;95315.06;;;3.73;100.00
8298;BME280;4187;42.778;23.242;2023-11-19T01:24:36;95309.50;;;3.65;100.00
8298;BME280;4187;42.778;23.242;2023-11-19T01:27:03;95307.94;;;3.62;100.00
8298;BME280;4187;42.778;23.242;2023-11-19T01:29:31;95302.00;;;3.60;100.00
8298;BME280;4187;42.778;23.242;2023-11-19T01:31:58;95294.28;;;3.59;100.00
8298;BME280;4187;42.778;23.242;2023-11-19T01:34:25;95292.91;;;3.53;100.00
8298;BME280;4187;42.778;23.242;2023-11-19T01:36:52;95293.97;;;3.51;100.00
8298;BME280;4187;42.778;23.242;2023-11-19T01:39:19;95307.41;;;3.45;100.00
8298;BME280;4187;42.778;23.242;2023-11-19T01:41:46;95314.50;;;3.43;100.00
8298;BME280;4187;42.778;23.242;2023-11-19T01:44:13;95315.75;;;3.37;100.00
8298;BME280;4187;42.778;23.242;2023-11-19T01:46:42;95318.56;;;3.34;100.00
8298;BME280;4187;42.778;23.242;2023-11-19T01:49:11;95314.97;;;3.35;100.00
8298;BME280;4187;42.778;23.242;2023-11-19T01:51:39;95331.59;;;3.34;100.00
8298;BME280;4187;42.778;23.242;2023-11-19T01:54:07;95321.34;;;3.31;100.00
8298;BME280;4187;42.778;23.242;2023-11-19T01:56:35;95271.00;;;3.04;100.00
8298;BME280;4187;42.778;23.242;2023-11-19T01:59:02;95308.31;;;3.31;100.00
8298;BME280;4187;42.778;23.242;2023-11-19T02:01:29;95301.72;;;3.26;100.00
8298;BME280;4187;42.778;23.242;2023-11-19T02:03:59;95304.13;;;3.29;100.00
8298;BME280;4187;42.778;23.242;2023-11-19T02:06:26;95310.41;;;3.39;100.00
8298;BME280;4187;42.778;23.242;2023-11-19T02:08:54;95307.72;;;3.40;100.00
8298;BME280;4187;42.778;23.242;2023-11-19T02:11:21;95246.63;;;3.05;100.00
8298;BME280;4187;42.778;23.242;2023-11-19T02:13:48;95312.09;;;3.40;100.00
8298;BME280;4187;42.778;23.242;2023-11-19T02:16:14;95313.03;;;3.39;100.00
8298;BME280;4187;42.778;23.242;2023-11-19T02:18:41;95316.06;;;3.45;100.00
8298;BME280;4187;42.778;23.242;2023-11-19T02:21:09;95318.97;;;3.41;100.00
8298;BME280;4187;42.778;23.242;2023-11-19T02:23:37;95298.28;;;3.25;100.00
8298;BME280;4187;42.778;23.242;2023-11-19T02:26:12;95198.22;;;2.62;100.00
8298;BME280;4187;42.778;23.242;2023-11-19T02:28:42;95327.13;;;3.49;100.00
8298;BME280;4187;42.778;23.242;2023-11-19T02:31:09;95314.91;;;3.49;100.00
8298;BME280;4187;42.778;23.242;2023-11-19T02:33:36;95307.00;;;3.51;100.00
8298;BME280;4187;42.778;23.242;2023-11-19T02:36:04;95297.63;;;3.48;100.00
8298;BME280;4187;42.778;23.242;2023-11-19T02:38:32;95309.81;;;3.48;100.00
8298;BME280;4187;42.778;23.242;2023-11-19T02:40:59;95306.56;;;3.44;100.00
8298;BME280;4187;42.778;23.242;2023-11-19T02:43:27;95310.09;;;3.43;100.00
8298;BME280;4187;42.778;23.242;2023-11-19T02:45:58;95319.91;;;3.40;100.00
8298;BME280;4187;42.778;23.242;2023-11-19T02:48:24;95323.66;;;3.36;100.00
8298;BME280;4187;42.778;23.242;2023-11-19T02:50:51;95332.31;;;3.36;100.00
8298;BME280;4187;42.778;23.242;2023-11-19T02:53:18;95329.50;;;3.39;100.00
8298;BME280;4187;42.778;23.242;2023-11-19T02:55:47;95323.84;;;3.33;100.00
8298;BME280;4187;42.778;23.242;2023-11-19T02:58:15;95317.91;;;3.31;100.00
8298;BME280;4187;42.778;23.242;2023-11-19T03:00:49;95315.50;;;3.28;100.00
8298;BME280;4187;42.778;23.242;2023-11-19T03:03:23;95319.06;;;3.27;100.00
8298;BME280;4187;42.778;23.242;2023-11-19T03:05:54;95313.84;;;3.27;100.00
8298;BME280;4187;42.778;23.242;2023-11-19T03:08:21;95308.38;;;3.17;100.00
8298;BME280;4187;42.778;23.242;2023-11-19T03:10:48;95317.34;;;3.13;100.00
8298;BME280;4187;42.778;23.242;2023-11-19T03:13:15;95310.44;;;3.12;100.00
8298;BME280;4187;42.778;23.242;2023-11-19T03:15:43;95322.38;;;3.16;100.00
8298;BME280;4187;42.778;23.242;2023-11-19T03:18:10;95314.81;;;3.12;100.00
8298;BME280;4187;42.778;23.242;2023-11-19T03:20:38;95298.34;;;3.11;100.00
8298;BME280;4187;42.778;23.242;2023-11-19T03:23:05;95325.94;;;3.28;100.00
8298;BME280;4187;42.778;23.242;2023-11-19T03:25:32;95325.00;;;3.29;100.00
8298;BME280;4187;42.778;23.242;2023-11-19T03:28:03;95327.81;;;3.26;100.00
8298;BME280;4187;42.778;23.242;2023-11-19T03:30:30;95328.84;;;3.23;100.00
8298;BME280;4187;42.778;23.242;2023-11-19T03:32:58;95330.72;;;3.21;100.00
8298;BME280;4187;42.778;23.242;2023-11-19T03:35:26;95338.88;;;3.29;100.00
8298;BME280;4187;42.778;23.242;2023-11-19T03:37:54;95343.25;;;3.29;100.00
8298;BME280;4187;42.778;23.242;2023-11-19T03:40:21;95325.38;;;3.23;100.00
8298;BME280;4187;42.778;23.242;2023-11-19T03:42:49;95342.88;;;3.35;100.00
8298;BME280;4187;42.778;23.242;2023-11-19T03:45:16;95355.59;;;3.39;100.00
8298;BME280;4187;42.778;23.242;2023-11-19T03:47:43;95351.31;;;3.38;100.00
8298;BME280;4187;42.778;23.242;2023-11-19T03:50:09;95349.50;;;3.26;100.00
8298;BME280;4187;42.778;23.242;2023-11-19T03:52:36;95373.13;;;3.37;100.00
8298;BME280;4187;42.778;23.242;2023-11-19T03:55:05;95368.53;;;3.41;100.00
8298;BME280;4187;42.778;23.242;2023-11-19T03:57:33;95365.00;;;3.42;100.00
8298;BME280;4187;42.778;23.242;2023-11-19T04:00:00;95367.91;;;3.37;100.00
8298;BME280;4187;42.778;23.242;2023-11-19T04:02:33;95363.72;;;3.35;100.00
8298;BME280;4187;42.778;23.242;2023-11-19T04:04:59;95351.41;;;3.37;100.00
8298;BME280;4187;42.778;23.242;2023-11-19T04:07:26;95361.53;;;3.41;100.00
8298;BME280;4187;42.778;23.242;2023-11-19T04:09:53;95359.13;;;3.38;100.00
8298;BME280;4187;42.778;23.242;2023-11-19T04:12:21;95351.22;;;3.40;100.00
8298;BME280;4187;42.778;23.242;2023-11-19T04:14:48;95357.91;;;3.44;100.00
8298;BME280;4187;42.778;23.242;2023-11-19T04:17:15;95356.31;;;3.41;100.00
8298;BME280;4187;42.778;23.242;2023-11-19T04:19:42;95356.94;;;3.32;100.00
8298;BME280;4187;42.778;23.242;2023-11-19T04:22:08;95347.13;;;3.36;100.00
8298;BME280;4187;42.778;23.242;2023-11-19T04:24:36;95344.53;;;3.36;100.00
8298;BME280;4187;42.778;23.242;2023-11-19T04:27:04;95358.72;;;3.32;100.00
8298;BME280;4187;42.778;23.242;2023-11-19T04:29:33;95370.91;;;3.31;100.00
8298;BME280;4187;42.778;23.242;2023-11-19T04:32:00;95364.00;;;3.30;100.00
8298;BME280;4187;42.778;23.242;2023-11-19T04:34:27;95373.72;;;3.28;100.00
8298;BME280;4187;42.778;23.242;2023-11-19T04:36:54;95355.00;;;3.22;100.00
8298;BME280;4187;42.778;23.242;2023-11-19T04:39:21;95374.94;;;3.23;100.00
8298;BME280;4187;42.778;23.242;2023-11-19T04:41:48;95374.28;;;3.19;100.00
8298;BME280;4187;42.778;23.242;2023-11-19T04:44:15;95367.41;;;3.18;100.00
8298;BME280;4187;42.778;23.242;2023-11-19T04:46:44;95356.78;;;3.21;100.00
8298;BME280;4187;42.778;23.242;2023-11-19T04:49:12;95369.00;;;3.21;100.00
8298;BME280;4187;42.778;23.242;2023-11-19T04:51:39;95359.06;;;3.13;100.00
8298;BME280;4187;42.778;23.242;2023-11-19T04:54:07;95363.06;;;3.19;100.00
8298;BME280;4187;42.778;23.242;2023-11-19T04:56:35;95320.69;;;2.88;100.00
8298;BME280;4187;42.778;23.242;2023-11-19T04:59:02;95379.81;;;3.15;100.00
8298;BME280;4187;42.778;23.242;2023-11-19T05:01:29;95377.66;;;3.21;100.00
8298;BME280;4187;42.778;23.242;2023-11-19T05:03:57;95393.50;;;3.18;100.00
8298;BME280;4187;42.778;23.242;2023-11-19T05:06:26;95419.75;;;3.15;100.00
8298;BME280;4187;42.778;23.242;2023-11-19T05:08:53;95408.13;;;3.07;100.00
8298;BME280;4187;42.778;23.242;2023-11-19T05:11:20;95402.28;;;3.03;100.00
8298;BME280;4187;42.778;23.242;2023-11-19T05:13:47;95409.81;;;3.08;100.00
8298;BME280;4187;42.778;23.242;2023-11-19T05:16:14;95406.66;;;3.03;100.00
8298;BME280;4187;42.778;23.242;2023-11-19T05:18:41;95399.03;;;2.99;100.00
8298;BME280;4187;42.778;23.242;2023-11-19T05:21:09;95397.91;;;3.03;100.00
8298;BME280;4187;42.778;23.242;2023-11-19T05:23:36;95398.84;;;3.03;100.00
8298;BME280;4187;42.778;23.242;2023-11-19T05:26:03;95403.84;;;3.06;100.00
8298;BME280;4187;42.778;23.242;2023-11-19T05:28:30;95393.72;;;3.01;100.00
8298;BME280;4187;42.778;23.242;2023-11-19T05:30:57;95389.81;;;3.08;100.00
8298;BME280;4187;42.778;23.242;2023-11-19T05:33:24;95407.28;;;3.06;100.00
8298;BME280;4187;42.778;23.242;2023-11-19T05:35:50;95401.47;;;3.03;100.00
8298;BME280;4187;42.778;23.242;2023-11-19T05:38:19;95409.47;;;2.99;100.00
8298;BME280;4187;42.778;23.242;2023-11-19T05:40:46;95415.72;;;2.97;100.00
8298;BME280;4187;42.778;23.242;2023-11-19T05:43:14;95413.56;;;2.89;100.00
8298;BME280;4187;42.778;23.242;2023-11-19T05:45:42;95425.19;;;2.98;100.00
8298;BME280;4187;42.778;23.242;2023-11-19T05:48:09;95426.03;;;2.98;100.00
8298;BME280;4187;42.778;23.242;2023-11-19T05:50:36;95422.69;;;2.96;100.00
8298;BME280;4187;42.778;23.242;2023-11-19T05:53:03;95425.47;;;2.93;100.00
8298;BME280;4187;42.778;23.242;2023-11-19T05:55:33;95428.56;;;3.00;100.00
8298;BME280;4187;42.778;23.242;2023-11-19T05:58:00;95437.31;;;2.99;100.00
8298;BME280;4187;42.778;23.242;2023-11-19T06:00:28;95449.19;;;3.03;100.00
8298;BME280;4187;42.778;23.242;2023-11-19T06:02:56;95450.16;;;3.02;100.00
8298;BME280;4187;42.778;23.242;2023-11-19T06:05:22;95448.09;;;3.07;100.00
8298;BME280;4187;42.778;23.242;2023-11-19T06:07:49;95455.00;;;3.08;100.00
8298;BME280;4187;42.778;23.242;2023-11-19T06:10:17;95452.75;;;3.16;100.00
8298;BME280;4187;42.778;23.242;2023-11-19T06:12:47;95434.50;;;3.16;100.00
8298;BME280;4187;42.778;23.242;2023-11-19T06:15:21;95445.91;;;3.14;100.00
8298;BME280;4187;42.778;23.242;2023-11-19T06:17:48;95448.94;;;3.08;100.00
8298;BME280;4187;42.778;23.242;2023-11-19T06:20:15;95450.88;;;3.04;100.00
8298;BME280;4187;42.778;23.242;2023-11-19T06:22:42;95454.03;;;3.09;100.00
8298;BME280;4187;42.778;23.242;2023-11-19T06:25:11;95459.44;;;3.06;100.00
8298;BME280;4187;42.778;23.242;2023-11-19T06:27:40;95472.94;;;3.13;100.00
8298;BME280;4187;42.778;23.242;2023-11-19T06:30:09;95472.22;;;3.11;100.00
8298;BME280;4187;42.778;23.242;2023-11-19T06:32:37;95477.50;;;3.09;100.00
8298;BME280;4187;42.778;23.242;2023-11-19T06:35:04;95468.66;;;2.97;100.00
8298;BME280;4187;42.778;23.242;2023-11-19T06:37:31;95485.25;;;3.11;100.00
8298;BME280;4187;42.778;23.242;2023-11-19T06:39:58;95471.56;;;3.07;100.00
8298;BME280;4187;42.778;23.242;2023-11-19T06:42:25;95473.78;;;2.99;100.00
8298;BME280;4187;42.778;23.242;2023-11-19T06:44:52;95485.97;;;3.13;100.00
8298;BME280;4187;42.778;23.242;2023-11-19T06:47:21;95493.69;;;3.14;100.00
8298;BME280;4187;42.778;23.242;2023-11-19T06:49:47;95479.81;;;3.14;100.00
8298;BME280;4187;42.778;23.242;2023-11-19T06:52:16;95468.09;;;3.07;100.00
8298;BME280;4187;42.778;23.242;2023-11-19T06:54:42;95486.28;;;3.08;100.00
8298;BME280;4187;42.778;23.242;2023-11-19T06:57:10;95484.47;;;3.09;100.00
8298;BME280;4187;42.778;23.242;2023-11-19T06:59:37;95492.78;;;3.15;100.00
8298;BME280;4187;42.778;23.242;2023-11-19T07:02:04;95487.75;;;3.12;100.00
8298;BME280;4187;42.778;23.242;2023-11-19T07:04:32;95475.63;;;3.11;100.00
8298;BME280;4187;42.778;23.242;2023-11-19T07:06:59;95485.25;;;3.11;100.00
8298;BME280;4187;42.778;23.242;2023-11-19T07:09:26;95489.81;;;3.07;100.00
8298;BME280;4187;42.778;23.242;2023-11-19T07:11:53;95479.91;;;3.12;100.00
8298;BME280;4187;42.778;23.242;2023-11-19T07:14:20;95477.31;;;3.12;100.00
8298;BME280;4187;42.778;23.242;2023-11-19T07:16:48;95487.63;;;3.14;100.00
8298;BME280;4187;42.778;23.242;2023-11-19T07:19:16;95478.34;;;3.10;100.00
8298;BME280;4187;42.778;23.242;2023-11-19T07:21:44;95471.75;;;3.04;100.00
8298;BME280;4187;42.778;23.242;2023-11-19T07:24:11;95405.50;;;2.66;100.00
8298;BME280;4187;42.778;23.242;2023-11-19T07:26:41;95477.50;;;3.09;100.00
8298;BME280;4187;42.778;23.242;2023-11-19T07:29:08;95483.38;;;3.13;100.00
8298;BME280;4187;42.778;23.242;2023-11-19T07:31:35;95470.63;;;3.08;100.00
8298;BME280;4187;42.778;23.242;2023-11-19T07:34:02;95474.34;;;3.18;100.00
8298;BME280;4187;42.778;23.242;2023-11-19T07:36:30;95463.91;;;3.18;100.00
8298;BME280;4187;42.778;23.242;2023-11-19T07:38:59;95472.56;;;3.19;100.00
8298;BME280;4187;42.778;23.242;2023-11-19T07:41:25;95475.25;;;3.17;100.00
8298;BME280;4187;42.778;23.242;2023-11-19T07:43:52;95471.97;;;3.28;100.00
8298;BME280;4187;42.778;23.242;2023-11-19T07:46:20;95454.25;;;3.33;100.00
8298;BME280;4187;42.778;23.242;2023-11-19T07:48:47;95470.22;;;3.28;100.00
8298;BME280;4187;42.778;23.242;2023-11-19T07:51:14;95482.03;;;3.34;100.00
8298;BME280;4187;42.778;23.242;2023-11-19T07:53:41;95493.00;;;3.39;100.00
8298;BME280;4187;42.778;23.242;2023-11-19T07:56:10;95497.19;;;3.41;100.00
8298;BME280;4187;42.778;23.242;2023-11-19T07:58:37;95492.16;;;3.38;100.00
8298;BME280;4187;42.778;23.242;2023-11-19T08:01:05;95502.03;;;3.47;100.00
8298;BME280;4187;42.778;23.242;2023-11-19T08:03:32;95496.44;;;3.53;100.00
8298;BME280;4187;42.778;23.242;2023-11-19T08:05:59;95501.84;;;3.50;100.00
8298;BME280;4187;42.778;23.242;2023-11-19T08:08:29;95499.19;;;3.65;100.00
8298;BME280;4187;42.778;23.242;2023-11-19T08:10:58;95506.84;;;3.68;100.00
8298;BME280;4187;42.778;23.242;2023-11-19T08:13:26;95518.28;;;3.65;100.00
8298;BME280;4187;42.778;23.242;2023-11-19T08:15:52;95525.28;;;3.65;100.00
8298;BME280;4187;42.778;23.242;2023-11-19T08:18:19;95532.94;;;3.68;100.00
8298;BME280;4187;42.778;23.242;2023-11-19T08:20:46;95533.53;;;3.71;100.00
8298;BME280;4187;42.778;23.242;2023-11-19T08:23:18;95533.84;;;3.67;100.00
8298;BME280;4187;42.778;23.242;2023-11-19T08:25:45;95546.78;;;3.68;100.00
8298;BME280;4187;42.778;23.242;2023-11-19T08:28:11;95538.34;;;3.65;100.00
8298;BME280;4187;42.778;23.242;2023-11-19T08:30:40;95541.88;;;3.63;100.00
8298;BME280;4187;42.778;23.242;2023-11-19T08:33:06;95540.00;;;3.51;100.00
8298;BME280;4187;42.778;23.242;2023-11-19T08:35:33;95554.94;;;3.49;100.00
8298;BME280;4187;42.778;23.242;2023-11-19T08:38:00;95551.78;;;3.44;100.00
8298;BME280;4187;42.778;23.242;2023-11-19T08:40:27;95562.84;;;3.62;100.00
8298;BME280;4187;42.778;23.242;2023-11-19T08:42:55;95554.72;;;3.67;100.00
8298;BME280;4187;42.778;23.242;2023-11-19T08:45:22;95559.84;;;3.68;100.00
8298;BME280;4187;42.778;23.242;2023-11-19T08:47:50;95547.56;;;3.70;100.00
8298;BME280;4187;42.778;23.242;2023-11-19T08:50:17;95548.59;;;3.68;100.00
8298;BME280;4187;42.778;23.242;2023-11-19T08:52:44;95554.16;;;3.76;100.00
8298;BME280;4187;42.778;23.242;2023-11-19T08:55:11;95567.75;;;3.81;100.00
8298;BME280;4187;42.778;23.242;2023-11-19T08:57:39;95561.75;;;3.79;100.00
8298;BME280;4187;42.778;23.242;2023-11-19T09:00:06;95563.25;;;3.83;100.00
8298;BME280;4187;42.778;23.242;2023-11-19T09:02:34;95546.91;;;3.93;100.00
8298;BME280;4187;42.778;23.242;2023-11-19T09:05:04;95568.31;;;4.25;100.00
8298;BME280;4187;42.778;23.242;2023-11-19T09:07:31;95567.94;;;4.31;100.00
8298;BME280;4187;42.778;23.242;2023-11-19T09:09:58;95570.75;;;4.28;100.00
8298;BME280;4187;42.778;23.242;2023-11-19T09:12:25;95562.19;;;4.26;100.00
8298;BME280;4187;42.778;23.242;2023-11-19T09:14:52;95558.97;;;4.35;100.00
8298;BME280;4187;42.778;23.242;2023-11-19T09:17:18;95566.84;;;4.48;100.00
8298;BME280;4187;42.778;23.242;2023-11-19T09:19:45;95574.53;;;4.37;100.00
8298;BME280;4187;42.778;23.242;2023-11-19T09:22:13;95571.03;;;4.63;100.00
8298;BME280;4187;42.778;23.242;2023-11-19T09:24:40;95576.25;;;4.50;100.00
8298;BME280;4187;42.778;23.242;2023-11-19T09:27:09;95566.09;;;4.46;100.00
8298;BME280;4187;42.778;23.242;2023-11-19T09:29:36;95572.91;;;4.48;100.00
8298;BME280;4187;42.778;23.242;2023-11-19T09:32:03;95567.69;;;4.48;100.00
8298;BME280;4187;42.778;23.242;2023-11-19T09:34:30;95567.03;;;4.57;100.00
8298;BME280;4187;42.778;23.242;2023-11-19T09:36:58;95552.03;;;4.99;100.00
8298;BME280;4187;42.778;23.242;2023-11-19T09:39:26;95559.69;;;5.27;100.00
8298;BME280;4187;42.778;23.242;2023-11-19T09:41:53;95561.00;;;5.45;100.00
8298;BME280;4187;42.778;23.242;2023-11-19T09:44:20;95541.41;;;5.51;100.00
8298;BME280;4187;42.778;23.242;2023-11-19T09:53:21;95501.06;;;6.02;100.00
8298;BME280;4187;42.778;23.242;2023-11-19T09:55:49;95499.78;;;6.08;100.00
8298;BME280;4187;42.778;23.242;2023-11-19T09:58:35;95486.53;;;6.09;100.00
8298;BME280;4187;42.778;23.242;2023-11-19T10:01:02;95484.91;;;6.08;100.00
8298;BME280;4187;42.778;23.242;2023-11-19T10:03:33;95480.66;;;5.82;100.00
8298;BME280;4187;42.778;23.242;2023-11-19T10:06:01;95490.00;;;5.62;100.00
8298;BME280;4187;42.778;23.242;2023-11-19T10:08:29;95479.03;;;5.44;100.00
8298;BME280;4187;42.778;23.242;2023-11-19T10:10:57;95485.16;;;5.32;100.00
8298;BME280;4187;42.778;23.242;2023-11-19T10:13:26;95475.66;;;5.19;100.00
8298;BME280;4187;42.778;23.242;2023-11-19T10:15:53;95497.09;;;5.24;100.00
8298;BME280;4187;42.778;23.242;2023-11-19T10:18:24;95498.97;;;5.22;100.00
8298;BME280;4187;42.778;23.242;2023-11-19T10:20:51;95495.75;;;5.18;100.00
8298;BME280;4187;42.778;23.242;2023-11-19T10:23:18;95509.00;;;5.28;100.00
8298;BME280;4187;42.778;23.242;2023-11-19T10:25:45;95500.00;;;5.32;100.00
8298;BME280;4187;42.778;23.242;2023-11-19T10:28:15;95486.41;;;5.27;100.00
8298;BME280;4187;42.778;23.242;2023-11-19T10:30:44;95484.19;;;5.33;100.00
8298;BME280;4187;42.778;23.242;2023-11-19T10:33:12;95463.47;;;5.30;100.00
8298;BME280;4187;42.778;23.242;2023-11-19T10:35:52;95483.69;;;5.28;100.00
8298;BME280;4187;42.778;23.242;2023-11-19T10:38:20;95476.25;;;5.35;100.00
8298;BME280;4187;42.778;23.242;2023-11-19T10:40:48;95494.44;;;5.36;100.00
8298;BME280;4187;42.778;23.242;2023-11-19T10:43:16;95477.81;;;5.25;100.00
8298;BME280;4187;42.778;23.242;2023-11-19T10:45:43;95478.28;;;5.06;100.00
8298;BME280;4187;42.778;23.242;2023-11-19T10:48:11;95492.00;;;4.97;100.00
8298;BME280;4187;42.778;23.242;2023-11-19T10:50:39;95490.13;;;4.99;100.00
8298;BME280;4187;42.778;23.242;2023-11-19T10:53:08;95487.88;;;5.06;100.00
8298;BME280;4187;42.778;23.242;2023-11-19T10:55:36;95492.81;;;5.10;100.00
8298;BME280;4187;42.778;23.242;2023-11-19T10:58:05;95486.25;;;5.05;100.00
8298;BME280;4187;42.778;23.242;2023-11-19T11:00:38;95476.16;;;5.11;100.00
8298;BME280;4187;42.778;23.242;2023-11-19T11:03:11;95477.44;;;5.06;100.00
8298;BME280;4187;42.778;23.242;2023-11-19T11:05:38;95470.41;;;5.06;100.00
8298;BME280;4187;42.778;23.242;2023-11-19T11:08:07;95454.09;;;5.15;100.00
8298;BME280;4187;42.778;23.242;2023-11-19T11:10:39;95457.19;;;5.33;100.00
8298;BME280;4187;42.778;23.242;2023-11-19T11:13:06;95459.03;;;5.43;100.00
8298;BME280;4187;42.778;23.242;2023-11-19T11:15:36;95461.34;;;5.48;100.00
8298;BME280;4187;42.778;23.242;2023-11-19T11:18:05;95449.53;;;5.42;100.00
8298;BME280;4187;42.778;23.242;2023-11-19T11:20:35;95453.78;;;5.43;100.00
8298;BME280;4187;42.778;23.242;2023-11-19T11:23:20;95441.81;;;5.65;100.00
8298;BME280;4187;42.778;23.242;2023-11-19T11:26:00;95443.88;;;5.96;100.00
8298;BME280;4187;42.778;23.242;2023-11-19T11:28:39;95437.47;;;6.35;100.00
8298;BME280;4187;42.778;23.242;2023-11-19T11:31:18;95444.31;;;6.82;100.00
8298;BME280;4187;42.778;23.242;2023-11-19T11:34:16;95455.66;;;7.38;100.00
8298;BME280;4187;42.778;23.242;2023-11-19T11:36:54;95445.53;;;7.76;100.00
8298;BME280;4187;42.778;23.242;2023-11-19T11:39:28;95436.13;;;8.05;100.00
8298;BME280;4187;42.778;23.242;2023-11-19T11:42:32;95439.19;;;8.42;100.00
8298;BME280;4187;42.778;23.242;2023-11-19T11:44:59;95427.66;;;8.33;99.64
8298;BME280;4187;42.778;23.242;2023-11-19T11:48:08;95424.31;;;8.00;100.00
8298;BME280;4187;42.778;23.242;2023-11-19T11:50:36;95425.91;;;7.91;100.00
8298;BME280;4187;42.778;23.242;2023-11-19T11:53:16;95430.50;;;7.78;99.60
8298;BME280;4187;42.778;23.242;2023-11-19T11:55:57;95426.56;;;7.72;98.56
8298;BME280;4187;42.778;23.242;2023-11-19T11:58:27;95427.06;;;7.66;98.58
8298;BME280;4187;42.778;23.242;2023-11-19T12:00:58;95399.41;;;7.83;98.61
8298;BME280;4187;42.778;23.242;2023-11-19T12:03:29;95407.66;;;8.10;97.97
8298;BME280;4187;42.778;23.242;2023-11-19T12:05:57;95403.53;;;8.49;96.09
8298;BME280;4187;42.778;23.242;2023-11-19T12:08:26;95408.91;;;8.68;94.61
8298;BME280;4187;42.778;23.242;2023-11-19T12:10:54;95403.63;;;8.89;93.41
8298;BME280;4187;42.778;23.242;2023-11-19T12:13:23;95402.72;;;9.09;93.19
8298;BME280;4187;42.778;23.242;2023-11-19T12:16:09;95401.16;;;9.46;91.49
8298;BME280;4187;42.778;23.242;2023-11-19T12:18:39;95396.22;;;9.62;91.69
8298;BME280;4187;42.778;23.242;2023-11-19T12:21:07;95398.88;;;9.82;91.07
8298;BME280;4187;42.778;23.242;2023-11-19T12:23:35;95386.56;;;9.92;87.75
8298;BME280;4187;42.778;23.242;2023-11-19T12:26:01;95392.66;;;10.02;88.00
8298;BME280;4187;42.778;23.242;2023-11-19T12:28:29;95395.56;;;9.70;88.56
8298;BME280;4187;42.778;23.242;2023-11-19T12:31:07;95392.78;;;9.81;88.05
8298;BME280;4187;42.778;23.242;2023-11-19T12:33:35;95384.03;;;10.09;87.35
8298;BME280;4187;42.778;23.242;2023-11-19T12:36:06;95386.16;;;10.35;87.68
8298;BME280;4187;42.778;23.242;2023-11-19T12:38:33;95373.94;;;10.43;87.06
8298;BME280;4187;42.778;23.242;2023-11-19T12:41:03;95372.94;;;10.54;85.64
8298;BME280;4187;42.778;23.242;2023-11-19T12:43:30;95375.41;;;10.55;85.99
8298;BME280;4187;42.778;23.242;2023-11-19T12:45:59;95374.28;;;10.67;85.75
8298;BME280;4187;42.778;23.242;2023-11-19T12:48:26;95374.56;;;10.64;84.69
8298;BME280;4187;42.778;23.242;2023-11-19T12:50:53;95372.06;;;10.63;85.20
8298;BME280;4187;42.778;23.242;2023-11-19T12:53:23;95375.56;;;10.44;84.87
8298;BME280;4187;42.778;23.242;2023-11-19T12:55:51;95373.22;;;10.41;85.34
8298;BME280;4187;42.778;23.242;2023-11-19T12:58:30;95344.38;;;10.20;84.94
8298;BME280;4187;42.778;23.242;2023-11-19T13:01:02;95351.31;;;10.31;85.77
8298;BME280;4187;42.778;23.242;2023-11-19T13:03:30;95351.31;;;10.31;85.07
8298;BME280;4187;42.778;23.242;2023-11-19T13:06:01;95350.59;;;10.39;85.14
8298;BME280;4187;42.778;23.242;2023-11-19T13:08:36;95339.44;;;10.54;85.07
8298;BME280;4187;42.778;23.242;2023-11-19T13:11:04;95346.91;;;10.68;84.73
8298;BME280;4187;42.778;23.242;2023-11-19T13:13:53;95344.75;;;10.91;84.36
8298;BME280;4187;42.778;23.242;2023-11-19T13:16:20;95349.94;;;11.10;83.35
8298;BME280;4187;42.778;23.242;2023-11-19T13:18:47;95325.53;;;10.99;83.05
8298;BME280;4187;42.778;23.242;2023-11-19T13:21:14;95328.63;;;10.85;83.93
8298;BME280;4187;42.778;23.242;2023-11-19T13:23:42;95320.41;;;10.60;83.01
8298;BME280;4187;42.778;23.242;2023-11-19T13:26:09;95324.22;;;10.39;84.52